• Join FlightAware (Why Join?)
  • Login
  • US Flag 
12:44PM EDT


 

Airport Tracker/Info


-or-


 

Live Flight TrackerFlight Track Log ✈ EIN208 ✈ 22-Apr-2013 ✈ EIDW / DUB - EGCC / MAN

Flight Track Log - Related Links

Times and Time Zones

All times are in EDT time to prevent confusion due to time zone crossing. See the EIN208 flight status page for this flight to view local times or setup timezone preferences in your user account.

Time Position Orientation Groundspeed Altitude Reporting Facility
EDT Latitude Longitude Course Direction KTS MPH feet Rate Location/Type
09:16AM 53.4230 -6.2900 277° West 132 152 1,200  Level FlightAware
09:16AM 53.4240 -6.3040 277° West 123 142 1,900 1,860 Climbing FlightAware
09:17AM 53.4260 -6.3350 276° West 152 175 2,600 1,320 Climbing FlightAware
09:17AM 53.4270 -6.3550 275° West 172 198 2,900 1,020 Climbing FlightAware
09:17AM 53.4290 -6.3910 275° West 214 246 3,300 1,920 Climbing FlightAware
09:18AM 53.4320 -6.4450 275° West 230 265 4,700 2,880 Climbing FlightAware
09:18AM 53.4400 -6.4690 299° West 235 270 5,500 3,180 Climbing FlightAware
09:18AM 53.4520 -6.4860 320° Northwest 242 278 6,300 480 Climbing FlightAware
09:19AM 53.4789 -6.4944 320° Northwest 1 1 5,800 2,700 Descending FlightAware UK
09:19AM 53.4740 -6.4960 320° Northwest 262 302 7,200 3,300 Climbing FlightAware
09:19AM 53.4998 -6.4823 320° Northwest 1 1 6,800 3,300 Descending FlightAware UK
09:19AM 53.4990 -6.4840 320° Northwest 282 325 8,300 7,320 Climbing FlightAware
09:19AM 53.5130 -6.4620 43° Northeast 299 344 9,000 2,640 Climbing FlightAware
09:19AM 53.5190 -6.4390 66° East 314 361 9,400 2,400 Climbing FlightAware
09:20AM 53.5200 -6.4150 86° East 326 375 9,800 -780 Climbing FlightAware
09:20AM 53.5171 -6.3460 86° East 302 348 9,000 1,440 Descending FlightAware UK
09:20AM 53.5150 -6.2780 86° East 376 433 11,000 1,080 Climbing FlightAware
09:21AM 53.5121 -6.2047 86° East 358 412 9,900 1,620 Descending FlightAware UK
09:21AM 53.5110 -6.1580 86° East 404 465 12,100 2,460 Climbing FlightAware
09:21AM 53.5092 -6.0925 86° East 366 421 11,400 2,640 Descending FlightAware UK
09:22AM 53.5070 -6.0120 86° East 412 474 14,100 2,820 Climbing FlightAware
09:22AM 53.5048 -5.9373 86° East 364 419 13,700 600 Descending FlightAware UK
09:22AM 53.5030 -5.8809 93° East 364 419 14,500 6,240 Climbing FlightAware UK
09:22AM 53.5030 -5.8880 93° East 409 471 15,900 3,000 Climbing FlightAware
09:23AM 53.5001 -5.8051 93° East 364 419 15,700 3,300 Descending FlightAware UK
09:23AM 53.4980 -5.7540 93° East 397 457 18,100 2,280 Climbing FlightAware
09:24AM 53.4956 -5.6753 93° East 360 414 17,300 1,860 Descending FlightAware UK
09:24AM 53.4940 -5.6160 93° East 408 470 19,500 1,560 Climbing FlightAware
09:24AM 53.4911 -5.5430 93° East 362 417 18,400 960 Descending FlightAware UK
09:24AM 53.4900 -5.5180 93° East 417 480 20,000 780 Climbing FlightAware
09:25AM 53.4870 -5.4254 93° East 364 419 18,900 -1,140 Descending FlightAware UK
09:25AM 53.4848 -5.3672 94° East 360 414 19,200 780 Climbing FlightAware UK
09:25AM 53.4826 -5.3097 94° East 354 407 19,400 3,000 Climbing FlightAware UK
09:26AM 53.4810 -5.2610 94° East 401 461 21,000 120 Climbing FlightAware
09:26AM 53.4783 -5.1982 94° East 346 398 19,500 -2,520 Descending FlightAware UK
09:26AM 53.4762 -5.1427 94° East 346 398 19,500  Level FlightAware UK
09:27AM 53.4742 -5.0866 94° East 348 400 19,500 3,060 Level FlightAware UK
09:27AM 53.4730 -5.0570 94° East 399 459 21,000  Climbing FlightAware
09:27AM 53.4706 -4.9938 94° East 348 400 19,500 -2,460 Descending FlightAware UK
09:27AM 53.4684 -4.9380 94° East 350 403 19,500 2,880 Level FlightAware UK
09:28AM 53.4680 -4.9150 94° East 402 463 21,000  Climbing FlightAware
09:28AM 53.4647 -4.8447 94° East 350 403 19,500 -2,580 Descending FlightAware UK
09:28AM 53.4623 -4.7887 94° East 350 403 19,500 3,900 Level FlightAware UK
09:28AM 53.4630 -4.7930 94° East 401 461 21,000  Climbing FlightAware
09:29AM 53.4592 -4.7143 94° East 350 403 19,500 -2,460 Descending FlightAware UK
09:29AM 53.4568 -4.6586 94° East 348 400 19,500 4,260 Level FlightAware UK
09:29AM 53.4570 -4.6680 94° East 398 458 21,000  Climbing FlightAware
09:29AM 53.4537 -4.5846 94° East 348 400 19,500  Descending FlightAware UK
09:30AM 53.4510 -4.5300 94° East 400 460 21,000  Climbing FlightAware
09:30AM 53.4473 -4.4366 94° East 350 403 19,500  Descending FlightAware UK
09:30AM 53.4460 -4.4110 94° East 400 460 21,000  Climbing FlightAware
09:31AM 53.4424 -4.3254 94° East 348 400 19,500 -2,700 Descending FlightAware UK
09:31AM 53.4399 -4.2698 94° East 348 400 19,300 1,500 Descending FlightAware UK
09:31AM 53.4380 -4.2130 94° East 397 457 20,500 -1,020 Climbing FlightAware
09:32AM 53.4350 -4.1406 94° East 348 400 18,600 -900 Descending FlightAware UK
09:32AM 53.4330 -4.0890 94° East 399 459 19,900 -840 Climbing FlightAware
09:32AM 53.4311 -4.0299 94° East 350 403 18,100 -900 Descending FlightAware UK
09:33AM 53.4290 -3.9680 94° East 400 460 19,300 -1,020 Climbing FlightAware
09:33AM 53.4251 -3.8811 94° East 354 407 17,300 -1,080 Descending FlightAware UK
09:33AM 53.4230 -3.8260 94° East 394 453 18,500 -1,020 Climbing FlightAware
09:34AM 53.4206 -3.7702 94° East 348 400 16,700 -1,020 Descending FlightAware UK
09:34AM 53.4200 -3.7340 92° East 389 448 18,000 -1,380 Climbing FlightAware
09:34AM 53.4196 -3.7169 92° East 348 400 16,300 -7,920 Descending FlightAware UK
09:34AM 53.4234 -3.6818 92° East 348 400 15,900 2,280 Descending FlightAware UK
09:34AM 53.4260 -3.6650 92° East 383 441 17,100 -2,520 Climbing FlightAware
09:35AM 53.4325 -3.6123 92° East 352 405 14,900 -5,460 Descending FlightAware UK
09:35AM 53.4393 -3.5598 78° East 354 407 14,100 1,440 Descending FlightAware UK
09:35AM 53.4410 -3.5460 78° East 390 449 15,500 -2,040 Climbing FlightAware
09:35AM 53.4481 -3.4891 78° East 352 405 13,300 -4,800 Descending FlightAware UK
09:36AM 53.4544 -3.4354 79° East 348 400 12,700 1,500 Descending FlightAware UK
09:36AM 53.4570 -3.4140 79° East 384 442 14,000 -1,620 Climbing FlightAware
09:36AM 53.4647 -3.3476 79° East 342 394 11,900 -4,140 Descending FlightAware UK
09:36AM 53.4707 -3.2963 79° East 340 391 11,400 3,000 Descending FlightAware UK
09:36AM 53.4700 -3.2990 79° East 375 432 12,900 -2,040 Climbing FlightAware
09:37AM 53.4787 -3.2284 79° East 338 389 10,600 -4,080 Descending FlightAware UK
09:37AM 53.4847 -3.1779 79° East 334 384 10,200 3,960 Descending FlightAware UK
09:37AM 53.4840 -3.1830 79° East 367 422 11,800 -2,040 Climbing FlightAware
09:37AM 53.4905 -3.1280 79° East 332 382 9,600 -5,220 Descending FlightAware UK
09:38AM 53.4964 -3.0778 79° East 342 394 8,700 420 Descending FlightAware UK
09:38AM 53.4980 -3.0630 79° East 377 434 9,800 -2,760 Climbing FlightAware
09:38AM 53.5046 -3.0086 79° East 342 394 7,600 -2,400 Descending FlightAware UK
09:38AM 53.5070 -2.9860 79° East 377 434 8,800 1,680 Climbing FlightAware
09:39AM 53.5120 -2.9450 78° East 375 432 8,300 -4,920 Descending FlightAware
09:39AM 53.5181 -2.8881 78° East 336 387 6,200 -2,040 Descending FlightAware UK
09:39AM 53.5210 -2.8610 78° East 366 421 7,300 1,680 Climbing FlightAware
09:39AM 53.5260 -2.8180 79° East 355 409 7,000 -3,120 Descending FlightAware
09:40AM 53.5334 -2.7592 79° East 300 345 5,500  Descending FlightAware UK
09:40AM 53.5340 -2.7540 79° East 326 375 7,000  Climbing FlightAware
09:40AM 53.5400 -2.7005 79° East 282 325 5,500  Descending FlightAware UK
09:40AM 53.5420 -2.6820 79° East 312 359 7,000  Climbing FlightAware
09:41AM 53.5477 -2.6298 79° East 276 318 5,500  Descending FlightAware UK
09:41AM 53.5500 -2.6120 79° East 309 356 7,000 2,460 Climbing FlightAware
09:41AM 53.5560 -2.5510 81° East 308 354 7,000 -2,100 Level FlightAware
09:41AM 53.5615 -2.5023 81° East 276 318 5,500  Descending FlightAware UK
09:42AM 53.5640 -2.4790 81° East 308 354 7,000  Climbing FlightAware
09:42AM 53.5694 -2.4314 81° East 276 318 5,500  Descending FlightAware UK
09:42AM 53.5700 -2.4240 81° East 311 358 7,000  Climbing FlightAware
09:42AM 53.5757 -2.3746 81° East 278 320 5,500  Descending FlightAware UK
09:43AM 53.5780 -2.3560 81° East 310 357 7,000 2,040 Climbing FlightAware
09:43AM 53.5860 -2.2810 80° East 311 358 7,000 -2,340 Level FlightAware
09:43AM 53.5916 -2.2321 80° East 274 315 5,200 -720 Descending FlightAware UK
09:43AM 53.5930 -2.2230 80° East 308 354 6,700 2,820 Climbing FlightAware
09:44AM 53.5960 -2.1900 81° East 308 354 6,300 -1,620 Descending FlightAware
09:44AM 53.5880 -2.1220 101° East 303 349 5,500 -1,320 Descending FlightAware
09:45AM 53.5700 -2.0750 123° Southeast 287 330 5,100 -900 Descending FlightAware
09:45AM 53.5590 -2.0470 123° Southeast 273 314 4,900 -1,080 Descending FlightAware
09:45AM 53.5450 -2.0150 123° Southeast 260 299 4,500 -5,760 Descending FlightAware
09:45AM 53.5377 -2.0083 123° Southeast 224 258 2,800 -600 Descending FlightAware UK
09:46AM 53.5290 -2.0040 158° South 207 238 4,300 -720 Climbing FlightAware
09:46AM 53.5061 -2.0073 158° South 200 230 2,400 -840 Descending FlightAware UK
09:46AM 53.5010 -2.0090 158° South 168 193 3,900 -1,200 Climbing FlightAware
09:46AM 53.4833 -2.0138 158° South 188 216 1,800 -1,440 Descending FlightAware UK
09:47AM 53.4800 -2.0180 158° South 167 192 3,200 3,540 Climbing FlightAware
09:47AM 53.4730 -2.0290 223° Southwest 157 181 3,100 -240 Descending FlightAware
09:47AM 53.4660 -2.0420 228° Southwest 162 186 3,100 -3,000 Level FlightAware
09:47AM 53.4555 -2.0629 228° Southwest 190 219 1,500  Descending FlightAware UK
09:47AM 53.4510 -2.0740 228° Southwest 163 188 3,100 -240 Climbing FlightAware
09:48AM 53.4415 -2.0927 228° Southwest 190 219 1,400 -480 Descending FlightAware UK
09:48AM 53.4400 -2.0950 228° Southwest 162 186 2,900 -1,020 Climbing FlightAware
09:48AM 53.4217 -2.1340 228° Southwest 180 207 700 -960 Descending FlightAware UK
09:49AM 53.4180 -2.1420 231° Southwest 144 166 2,100 -720 Climbing FlightAware
09:49AM 53.4135 -2.1511 231° Southwest 166 191 500 -5,700 Descending FlightAware UK
09:49AM 53.4069 -2.1649 231° Southwest 164 189 300 -720 Descending FlightAware UK